createdAt,value
2018-02-10T00:00:01.413Z,2.15
2018-02-10T00:00:05.314Z,2.15
2018-02-10T00:00:09.206Z,2.11
2018-02-10T00:00:13.411Z,2.12
2018-02-10T00:00:17.096Z,2.12
2018-02-10T00:00:20.879Z,2.11
2018-02-10T00:00:24.774Z,2.14
2018-02-10T00:00:28.779Z,2.18
2018-02-10T00:00:32.777Z,2.09
2018-02-10T00:00:36.669Z,2.08
2018-02-10T00:00:40.457Z,2.05
2018-02-10T00:00:44.250Z,2.08
2018-02-10T00:00:48.044Z,2.18
2018-02-10T00:00:52.264Z,2.11
2018-02-10T00:00:56.386Z,2.09
2018-02-10T00:01:00.172Z,2.12
2018-02-10T00:01:04.070Z,2.08
2018-02-10T00:01:07.964Z,2.07
2018-02-10T00:01:11.858Z,2.2
2018-02-10T00:01:15.754Z,2.09
2018-02-10T00:01:19.856Z,2.12
2018-02-10T00:01:23.643Z,2.08
2018-02-10T00:01:27.643Z,2.12
2018-02-10T00:01:31.636Z,2.12
2018-02-10T00:01:35.635Z,2.11
2018-02-10T00:01:39.422Z,2.11
2018-02-10T00:01:43.473Z,2.14
2018-02-10T00:01:47.264Z,2.14
2018-02-10T00:01:51.259Z,2.11
2018-02-10T00:01:55.260Z,2.12
2018-02-10T00:01:59.046Z,2.11
2018-02-10T00:02:02.942Z,2.14
2018-02-10T00:02:06.837Z,2.14
2018-02-10T00:02:10.943Z,2.19
2018-02-10T00:02:14.839Z,2.14
2018-02-10T00:02:18.731Z,2.11
2018-02-10T00:02:22.521Z,2.07
2018-02-10T00:02:26.416Z,2.09
2018-02-10T00:02:30.309Z,2.08
2018-02-10T00:02:34.199Z,2.11
2018-02-10T00:02:38.203Z,2.11
2018-02-10T00:02:42.107Z,2.11
2018-02-10T00:02:46.114Z,2.14
2018-02-10T00:02:50.114Z,2.14
2018-02-10T00:02:54.012Z,2.09
2018-02-10T00:02:58.012Z,2.12
2018-02-10T00:03:02.011Z,2.12
2018-02-10T00:03:06.009Z,2.14
2018-02-10T00:03:10.177Z,2.14
2018-02-10T00:03:14.071Z,2.12
2018-02-10T00:03:18.277Z,2.15
2018-02-10T00:03:22.325Z,2.14
2018-02-10T00:03:26.425Z,2.11
2018-02-10T00:03:30.535Z,2.12
2018-02-10T00:03:34.431Z,2.11
2018-02-10T00:03:38.121Z,2.12
2018-02-10T00:03:42.125Z,2.11
2018-02-10T00:03:45.915Z,2.11
2018-02-10T00:03:49.811Z,2.11
2018-02-10T00:03:53.919Z,2.11
2018-02-10T00:03:57.807Z,2.12
2018-02-10T00:04:01.596Z,2.18
2018-02-10T00:04:05.495Z,2.18
2018-02-10T00:04:09.387Z,2.07
2018-02-10T00:04:13.496Z,2.11
2018-02-10T00:04:17.501Z,2.15
2018-02-10T00:04:21.606Z,2.14
2018-02-10T00:04:25.503Z,2.14
2018-02-10T00:04:29.288Z,2.09
2018-02-10T00:04:33.075Z,2.12
2018-02-10T00:04:36.968Z,2.14
2018-02-10T00:04:40.968Z,2.15
2018-02-10T00:04:44.655Z,2.11
2018-02-10T00:04:48.553Z,2.14
2018-02-10T00:04:52.663Z,2.12
2018-02-10T00:04:56.556Z,2.09
2018-02-10T00:05:00.342Z,2.11
2018-02-10T00:05:04.348Z,2.14
2018-02-10T00:05:08.140Z,2.11
2018-02-10T00:05:12.344Z,2.14
2018-02-10T00:05:16.240Z,2.14
2018-02-10T00:05:20.242Z,2.18
2018-02-10T00:05:24.143Z,2.14
2018-02-10T00:05:28.143Z,2.14
2018-02-10T00:05:32.135Z,2.11
2018-02-10T00:05:35.924Z,2.15
2018-02-10T00:05:39.926Z,2.2
2018-02-10T00:05:43.818Z,2.18
2018-02-10T00:05:47.814Z,2.14
2018-02-10T00:05:51.598Z,2.08
2018-02-10T00:05:55.702Z,2.09
2018-02-10T00:05:59.488Z,2.14
2018-02-10T00:06:03.388Z,2.09
2018-02-10T00:06:07.175Z,2.18
2018-02-10T00:06:11.171Z,2.07
2018-02-10T00:06:14.858Z,2.15
2018-02-10T00:06:18.746Z,2.08
2018-02-10T00:06:22.637Z,2.18
2018-02-10T00:06:26.526Z,2.08
2018-02-10T00:06:30.311Z,2.18
2018-02-10T00:06:34.206Z,2.12
2018-02-10T00:06:38.099Z,2.09
2018-02-10T00:06:41.780Z,2.14
2018-02-10T00:06:45.465Z,2.12
2018-02-10T00:06:49.361Z,2.15
2018-02-10T00:06:53.051Z,2.14
2018-02-10T00:06:56.833Z,2.14
2018-02-10T00:07:00.829Z,2.12
2018-02-10T00:07:04.972Z,2.11
2018-02-10T00:07:08.760Z,2.08
2018-02-10T00:07:12.545Z,2.11
2018-02-10T00:07:16.444Z,2.14
2018-02-10T00:07:20.344Z,2.14
2018-02-10T00:07:24.137Z,2.08
2018-02-10T00:07:28.133Z,2.09
2018-02-10T00:07:32.028Z,2.14
2018-02-10T00:07:36.029Z,2.14
2018-02-10T00:07:40.033Z,2.09
2018-02-10T00:07:43.722Z,2.11
2018-02-10T00:07:47.513Z,2.08
2018-02-10T00:07:51.298Z,2.11
2018-02-10T00:07:55.086Z,2.14
2018-02-10T00:07:58.871Z,2.12
2018-02-10T00:08:02.773Z,2.14
2018-02-10T00:08:06.669Z,2.12
2018-02-10T00:08:10.566Z,2.15
2018-02-10T00:08:14.468Z,2.14
2018-02-10T00:08:18.580Z,2.07
2018-02-10T00:08:22.688Z,2.11
2018-02-10T00:08:26.591Z,2.14
2018-02-10T00:08:30.491Z,2.11
2018-02-10T00:08:34.280Z,2.07
2018-02-10T00:08:37.962Z,2.14
2018-02-10T00:08:41.956Z,2.11
2018-02-10T00:08:45.789Z,2.08
2018-02-10T00:08:49.899Z,2.08
2018-02-10T00:08:54.003Z,2.12
2018-02-10T00:08:57.999Z,2.07
2018-02-10T00:09:02.190Z,2.12
2018-02-10T00:09:06.090Z,2.09
2018-02-10T00:09:09.982Z,2.15
2018-02-10T00:09:13.877Z,2.08
2018-02-10T00:09:17.776Z,2.08
2018-02-10T00:09:21.927Z,2.11
2018-02-10T00:09:25.713Z,2.14
2018-02-10T00:09:29.506Z,2.14
2018-02-10T00:09:33.400Z,2.14
2018-02-10T00:09:37.507Z,2.14
2018-02-10T00:09:41.400Z,2.08
2018-02-10T00:09:45.183Z,2.23
2018-02-10T00:09:49.182Z,2.19
2018-02-10T00:09:52.864Z,2.12
2018-02-10T00:09:56.764Z,2.15
2018-02-10T00:10:00.658Z,2.11
2018-02-10T00:10:04.871Z,2.09
2018-02-10T00:10:08.664Z,2.14
2018-02-10T00:10:12.454Z,2.08
2018-02-10T00:10:16.553Z,2.09
2018-02-10T00:10:20.555Z,2.09
2018-02-10T00:10:24.447Z,2.08
2018-02-10T00:10:28.343Z,2.08
2018-02-10T00:10:32.338Z,2.11
2018-02-10T00:10:36.343Z,2.11
2018-02-10T00:10:40.348Z,2.15
2018-02-10T00:10:44.565Z,2.07
2018-02-10T00:10:48.456Z,2.12
2018-02-10T00:10:52.451Z,2.09
2018-02-10T00:10:56.241Z,2.14
2018-02-10T00:11:00.029Z,2.11
2018-02-10T00:11:03.976Z,2.11
2018-02-10T00:11:07.765Z,2.08
2018-02-10T00:11:11.658Z,2.14
2018-02-10T00:11:15.762Z,2.14
2018-02-10T00:11:19.655Z,2.11
2018-02-10T00:11:23.652Z,2.11
2018-02-10T00:11:27.550Z,2.11
2018-02-10T00:11:31.338Z,2.07
2018-02-10T00:11:35.447Z,2.14
2018-02-10T00:11:39.136Z,2.09
2018-02-10T00:11:43.316Z,2.09
2018-02-10T00:11:47.656Z,2.14
2018-02-10T00:11:51.546Z,2.09
2018-02-10T00:11:55.336Z,2.12
2018-02-10T00:11:59.338Z,2.08
2018-02-10T00:12:03.544Z,2.09
2018-02-10T00:12:07.334Z,2.14
2018-02-10T00:12:11.454Z,2.18
2018-02-10T00:12:15.390Z,2.09
2018-02-10T00:12:19.288Z,2.15
2018-02-10T00:12:23.080Z,2.15
2018-02-10T00:12:26.871Z,2.2
2018-02-10T00:12:30.983Z,2.09
2018-02-10T00:12:34.777Z,2.15
2018-02-10T00:12:38.672Z,2.11
2018-02-10T00:12:42.566Z,2.11
2018-02-10T00:12:46.571Z,2.15
2018-02-10T00:12:50.462Z,2.12
2018-02-10T00:12:54.464Z,2.2
2018-02-10T00:12:58.461Z,2.15
2018-02-10T00:13:02.602Z,2.12
2018-02-10T00:13:06.398Z,2.14
2018-02-10T00:13:10.604Z,2.09
2018-02-10T00:13:14.603Z,2.14
2018-02-10T00:13:18.607Z,2.18
2018-02-10T00:13:22.395Z,2.08
2018-02-10T00:13:26.179Z,2.09
2018-02-10T00:13:30.068Z,2.12
2018-02-10T00:13:34.064Z,2.22
2018-02-10T00:13:38.163Z,2.14
2018-02-10T00:13:42.161Z,2.12
2018-02-10T00:13:46.162Z,2.15
2018-02-10T00:13:50.157Z,2.12
2018-02-10T00:13:54.047Z,2.09
2018-02-10T00:13:57.938Z,2.2
2018-02-10T00:14:01.622Z,2.12
2018-02-10T00:14:05.817Z,2.18
2018-02-10T00:14:09.814Z,2.23
2018-02-10T00:14:13.600Z,2.19
2018-02-10T00:14:17.700Z,2.14
2018-02-10T00:14:21.700Z,2.18
2018-02-10T00:14:25.878Z,2.09
2018-02-10T00:14:29.981Z,2.14
2018-02-10T00:14:34.187Z,2.14
2018-02-10T00:14:37.973Z,2.22
2018-02-10T00:14:41.651Z,2.14
2018-02-10T00:14:45.330Z,2.14
2018-02-10T00:14:49.437Z,2.23
2018-02-10T00:14:53.332Z,2.12
2018-02-10T00:14:57.118Z,2.14
2018-02-10T00:15:00.909Z,2.14
2018-02-10T00:15:05.016Z,2.14
2018-02-10T00:15:08.908Z,2.15
2018-02-10T00:15:12.598Z,2.18
2018-02-10T00:15:16.389Z,2.12
2018-02-10T00:15:20.176Z,2.2
2018-02-10T00:15:24.205Z,2.22
2018-02-10T00:15:28.102Z,2.18
2018-02-10T00:15:32.316Z,2.12
2018-02-10T00:15:36.309Z,2.12
2018-02-10T00:15:40.310Z,2.15
2018-02-10T00:15:44.207Z,2.08
2018-02-10T00:15:48.100Z,2.12
2018-02-10T00:15:52.412Z,2.23
2018-02-10T00:15:56.094Z,2.23
2018-02-10T00:16:00.199Z,2.12
2018-02-10T00:16:04.204Z,2.18
2018-02-10T00:16:08.109Z,2.2
2018-02-10T00:16:12.011Z,2.18
2018-02-10T00:16:15.909Z,2.15
2018-02-10T00:16:19.905Z,2.15
2018-02-10T00:16:23.799Z,2.18
2018-02-10T00:16:27.696Z,2.12
2018-02-10T00:16:31.697Z,2.18
2018-02-10T00:16:35.588Z,2.12
2018-02-10T00:16:39.421Z,2.12
2018-02-10T00:16:43.204Z,2.23
2018-02-10T00:16:46.888Z,2.12
2018-02-10T00:16:50.682Z,2.22
2018-02-10T00:16:54.789Z,2.18
2018-02-10T00:16:58.682Z,2.14
2018-02-10T00:17:02.513Z,2.12
2018-02-10T00:17:06.202Z,2.18
2018-02-10T00:17:09.995Z,2.2
2018-02-10T00:17:14.200Z,2.12
2018-02-10T00:17:18.241Z,2.14
2018-02-10T00:17:22.136Z,2.22
2018-02-10T00:17:26.246Z,2.15
2018-02-10T00:17:30.245Z,2.11
2018-02-10T00:17:34.037Z,2.22
2018-02-10T00:17:37.986Z,2.09
2018-02-10T00:17:41.885Z,2.11
2018-02-10T00:17:45.577Z,2.22
2018-02-10T00:17:49.397Z,2.15
2018-02-10T00:17:53.368Z,2.12
2018-02-10T00:17:57.258Z,2.11
2018-02-10T00:18:01.045Z,2.09
2018-02-10T00:18:05.135Z,2.11
2018-02-10T00:18:08.938Z,2.12
2018-02-10T00:18:12.939Z,2.15
2018-02-10T00:18:16.729Z,2.14
2018-02-10T00:18:20.724Z,2.14
2018-02-10T00:18:24.618Z,2.15
2018-02-10T00:18:28.618Z,2.09
2018-02-10T00:18:32.519Z,2.09
2018-02-10T00:18:36.414Z,2.18
2018-02-10T00:18:40.202Z,2.09
2018-02-10T00:18:44.298Z,2.14
2018-02-10T00:18:48.194Z,2.09
2018-02-10T00:18:51.976Z,2.14
2018-02-10T00:18:55.764Z,2.09
2018-02-10T00:18:59.550Z,2.14
2018-02-10T00:19:03.494Z,2.19
2018-02-10T00:19:07.491Z,2.15
2018-02-10T00:19:11.385Z,2.11
2018-02-10T00:19:15.390Z,2.15
2018-02-10T00:19:19.396Z,2.15
2018-02-10T00:19:23.295Z,2.14
2018-02-10T00:19:27.410Z,2.12
2018-02-10T00:19:31.195Z,2.08
2018-02-10T00:19:35.192Z,2.11
2018-02-10T00:19:39.192Z,2.09
2018-02-10T00:19:43.093Z,2.05
2018-02-10T00:19:46.879Z,2.14
2018-02-10T00:19:50.666Z,2.12
2018-02-10T00:19:54.657Z,2.04
2018-02-10T00:19:58.553Z,2.07
2018-02-10T00:20:02.543Z,2.12
2018-02-10T00:20:06.540Z,2.05
2018-02-10T00:20:10.433Z,2.05
2018-02-10T00:20:14.218Z,2.02
2018-02-10T00:20:18.056Z,2.08
2018-02-10T00:20:22.052Z,2.09
2018-02-10T00:20:25.948Z,2.05
2018-02-10T00:20:30.114Z,2.08
2018-02-10T00:20:34.112Z,2.05
2018-02-10T00:20:38.221Z,2.08
2018-02-10T00:20:42.333Z,2.07
2018-02-10T00:20:46.176Z,2.05
2018-02-10T00:20:50.066Z,2.08
2018-02-10T00:20:54.068Z,2.04
2018-02-10T00:20:57.778Z,2.09
2018-02-10T00:21:01.717Z,2.08
2018-02-10T00:21:05.813Z,2.09
2018-02-10T00:21:09.703Z,2.02
2018-02-10T00:21:13.597Z,2.01
2018-02-10T00:21:17.596Z,2.02
2018-02-10T00:21:21.491Z,2.05
2018-02-10T00:21:25.280Z,2.02
2018-02-10T00:21:29.179Z,2.07
2018-02-10T00:21:33.240Z,2.08
2018-02-10T00:21:36.924Z,2.07
2018-02-10T00:21:40.815Z,2.02
2018-02-10T00:21:44.707Z,2.07
2018-02-10T00:21:48.393Z,1.98
2018-02-10T00:21:52.282Z,2.02
2018-02-10T00:21:56.070Z,2.05
2018-02-10T00:21:59.852Z,2
2018-02-10T00:22:04.056Z,2.05
2018-02-10T00:22:07.954Z,2.02
2018-02-10T00:22:11.853Z,2.05
2018-02-10T00:22:15.852Z,2.05
2018-02-10T00:22:19.748Z,2.05
2018-02-10T00:22:23.644Z,2.01
2018-02-10T00:22:27.536Z,1.92
2018-02-10T00:22:31.434Z,1.98
2018-02-10T00:22:35.332Z,2.02
2018-02-10T00:22:39.225Z,1.95
2018-02-10T00:22:43.116Z,1.92
2018-02-10T00:22:47.115Z,2.04
2018-02-10T00:22:51.005Z,2.02
2018-02-10T00:22:54.901Z,2.11
2018-02-10T00:22:59.006Z,2.02
2018-02-10T00:23:02.893Z,2.04
2018-02-10T00:23:06.682Z,2.02
2018-02-10T00:23:10.526Z,2.01
2018-02-10T00:23:14.529Z,2.01
2018-02-10T00:23:18.529Z,2.02
2018-02-10T00:23:22.313Z,2.05
2018-02-10T00:23:26.216Z,1.95
2018-02-10T00:23:30.213Z,2.01
2018-02-10T00:23:34.106Z,1.98
2018-02-10T00:23:37.896Z,2
2018-02-10T00:23:42.099Z,2.01
2018-02-10T00:23:46.100Z,2.05
2018-02-10T00:23:50.202Z,2
2018-02-10T00:23:54.202Z,2.02
2018-02-10T00:23:58.096Z,2.04
2018-02-10T00:24:02.093Z,2.04
2018-02-10T00:24:05.983Z,2.01
2018-02-10T00:24:09.668Z,2.04
2018-02-10T00:24:13.666Z,2.04
2018-02-10T00:24:17.349Z,1.98
2018-02-10T00:24:21.029Z,1.98
2018-02-10T00:24:24.822Z,2
2018-02-10T00:24:28.503Z,2.04
2018-02-10T00:24:32.508Z,2
2018-02-10T00:24:36.294Z,2.05
2018-02-10T00:24:40.300Z,2.04
2018-02-10T00:24:43.985Z,2.01
2018-02-10T00:24:47.665Z,2.04
2018-02-10T00:24:51.453Z,1.98
2018-02-10T00:24:55.347Z,2.04
2018-02-10T00:24:59.240Z,2.04
2018-02-10T00:25:03.237Z,2.11
2018-02-10T00:25:07.126Z,2.02
2018-02-10T00:25:11.023Z,2.05
2018-02-10T00:25:14.812Z,1.89
2018-02-10T00:25:18.601Z,2.02
2018-02-10T00:25:22.394Z,2.01
2018-02-10T00:25:26.075Z,2.02
2018-02-10T00:25:29.973Z,2.07
2018-02-10T00:25:34.032Z,2.01
2018-02-10T00:25:37.932Z,2.02
2018-02-10T00:25:41.723Z,2.01
2018-02-10T00:25:45.825Z,2.02
2018-02-10T00:25:49.792Z,2.01
2018-02-10T00:25:53.985Z,2.04
2018-02-10T00:25:57.910Z,2
2018-02-10T00:26:02.167Z,2.02
2018-02-10T00:26:05.958Z,2
2018-02-10T00:26:09.849Z,1.92
2018-02-10T00:26:13.642Z,2.01
2018-02-10T00:26:17.432Z,2.08
2018-02-10T00:26:21.219Z,2.02
2018-02-10T00:26:25.222Z,1.95
2018-02-10T00:26:29.219Z,2.04
2018-02-10T00:26:33.327Z,2.04
2018-02-10T00:26:37.013Z,2.02
2018-02-10T00:26:40.903Z,2.02
2018-02-10T00:26:44.802Z,1.98
2018-02-10T00:26:48.698Z,2.01
2018-02-10T00:26:52.698Z,2.05
2018-02-10T00:26:56.495Z,2
2018-02-10T00:27:00.293Z,1.98
2018-02-10T00:27:04.558Z,2.01
2018-02-10T00:27:08.353Z,2.05
2018-02-10T00:27:12.353Z,2.07
2018-02-10T00:27:16.357Z,2.05
2018-02-10T00:27:20.144Z,2.05
2018-02-10T00:27:24.044Z,2.08
2018-02-10T00:27:27.942Z,2.07
2018-02-10T00:27:31.942Z,2.04
2018-02-10T00:27:35.841Z,2.08
2018-02-10T00:27:39.626Z,2
2018-02-10T00:27:43.526Z,2.02
2018-02-10T00:27:47.523Z,2.01
2018-02-10T00:27:51.524Z,2.04
2018-02-10T00:27:55.322Z,1.95
2018-02-10T00:27:59.324Z,2.05
2018-02-10T00:28:03.164Z,1.95
2018-02-10T00:28:06.848Z,2.04
2018-02-10T00:28:10.742Z,2
2018-02-10T00:28:14.741Z,2.01
2018-02-10T00:28:18.636Z,1.95
2018-02-10T00:28:22.320Z,2
2018-02-10T00:28:26.212Z,2.02
2018-02-10T00:28:30.214Z,2.04
2018-02-10T00:28:33.999Z,2.04
2018-02-10T00:28:38.103Z,1.93
2018-02-10T00:28:41.783Z,2.02
2018-02-10T00:28:45.567Z,2.05
2018-02-10T00:28:49.353Z,1.9
2018-02-10T00:28:53.146Z,1.95
2018-02-10T00:28:57.149Z,2.02
2018-02-10T00:29:00.944Z,2.01
2018-02-10T00:29:04.937Z,2.04
2018-02-10T00:29:08.823Z,2.05
2018-02-10T00:29:12.930Z,2
2018-02-10T00:29:16.721Z,1.98
2018-02-10T00:29:20.510Z,2
2018-02-10T00:29:24.517Z,2.09
2018-02-10T00:29:28.320Z,2.04
2018-02-10T00:29:32.214Z,2.01
2018-02-10T00:29:36.117Z,1.95
2018-02-10T00:29:40.015Z,1.92
2018-02-10T00:29:44.006Z,2.02
2018-02-10T00:29:47.689Z,2.04
2018-02-10T00:29:51.584Z,2
2018-02-10T00:29:55.479Z,1.98
2018-02-10T00:29:59.371Z,2.07
2018-02-10T00:30:03.167Z,2.05
2018-02-10T00:30:07.175Z,2.02
2018-02-10T00:30:11.065Z,1.95
2018-02-10T00:30:14.860Z,2.01
2018-02-10T00:30:18.540Z,2.05
2018-02-10T00:30:22.432Z,2.07
2018-02-10T00:30:26.382Z,2.07
2018-02-10T00:30:30.386Z,2.02
2018-02-10T00:30:34.380Z,2.05
2018-02-10T00:30:38.281Z,2
2018-02-10T00:30:42.070Z,2.04
2018-02-10T00:30:45.859Z,2.02
2018-02-10T00:30:49.756Z,2.07
2018-02-10T00:30:53.653Z,2.04
2018-02-10T00:30:57.544Z,2.07
2018-02-10T00:31:01.441Z,2.04
2018-02-10T00:31:05.445Z,2.01
2018-02-10T00:31:09.564Z,2.04
2018-02-10T00:31:13.689Z,2
2018-02-10T00:31:17.374Z,2.07
2018-02-10T00:31:21.372Z,1.98
2018-02-10T00:31:25.265Z,2.09
2018-02-10T00:31:29.473Z,2.07
2018-02-10T00:31:33.158Z,2.05
2018-02-10T00:31:37.057Z,1.93
2018-02-10T00:31:40.954Z,2.01
2018-02-10T00:31:44.744Z,2.07
2018-02-10T00:31:48.955Z,2.02
2018-02-10T00:31:52.860Z,2.07
2018-02-10T00:31:56.858Z,2.04
2018-02-10T00:32:00.760Z,2.08
2018-02-10T00:32:04.550Z,2.04
2018-02-10T00:32:08.340Z,2.04
2018-02-10T00:32:12.131Z,2.02
2018-02-10T00:32:15.917Z,2.02
2018-02-10T00:32:19.811Z,2.04
2018-02-10T00:32:23.714Z,2.01
2018-02-10T00:32:27.709Z,2.04
2018-02-10T00:32:31.493Z,2.04
2018-02-10T00:32:35.488Z,2.04
2018-02-10T00:32:39.390Z,2.02
2018-02-10T00:32:43.293Z,1.89
2018-02-10T00:32:47.189Z,1.95
2018-02-10T00:32:51.084Z,2.02
2018-02-10T00:32:54.979Z,2.09
2018-02-10T00:32:58.880Z,1.95
2018-02-10T00:33:02.776Z,2.04
2018-02-10T00:33:06.572Z,2.02
2018-02-10T00:33:10.569Z,1.9
2018-02-10T00:33:14.462Z,2.02
2018-02-10T00:33:18.251Z,2
2018-02-10T00:33:21.938Z,2.04
2018-02-10T00:33:25.728Z,1.95
2018-02-10T00:33:29.616Z,2.04
2018-02-10T00:33:33.299Z,2.05
2018-02-10T00:33:37.402Z,2.04
2018-02-10T00:33:41.395Z,2.04
2018-02-10T00:33:45.496Z,2
2018-02-10T00:33:49.601Z,2.04
2018-02-10T00:33:53.388Z,2
2018-02-10T00:33:57.184Z,1.98
2018-02-10T00:34:00.970Z,1.88
2018-02-10T00:34:05.218Z,2
2018-02-10T00:34:09.130Z,2.05
2018-02-10T00:34:12.917Z,2.01
2018-02-10T00:34:16.717Z,1.93
2018-02-10T00:34:20.718Z,2.02
2018-02-10T00:34:24.941Z,1.89
2018-02-10T00:34:28.840Z,1.92
2018-02-10T00:34:32.732Z,2.08
2018-02-10T00:34:36.726Z,2.09
2018-02-10T00:34:40.832Z,1.95
2018-02-10T00:34:45.037Z,2.04
2018-02-10T00:34:49.143Z,2.09
2018-02-10T00:34:52.931Z,2.02
2018-02-10T00:34:56.929Z,2.04
2018-02-10T00:35:00.824Z,2.08
2018-02-10T00:35:05.120Z,2.02
2018-02-10T00:35:09.016Z,2.04
2018-02-10T00:35:13.017Z,2.05
2018-02-10T00:35:16.816Z,1.92
2018-02-10T00:35:20.710Z,2.07
2018-02-10T00:35:24.602Z,1.88
2018-02-10T00:35:28.498Z,2.04
2018-02-10T00:35:32.287Z,1.92
2018-02-10T00:35:36.178Z,2
2018-02-10T00:35:39.965Z,2.01
2018-02-10T00:35:43.858Z,2.02
2018-02-10T00:35:47.542Z,2
2018-02-10T00:35:51.230Z,2.04
2018-02-10T00:35:55.015Z,2.07
2018-02-10T00:35:59.066Z,2.07
2018-02-10T00:36:03.102Z,1.9
2018-02-10T00:36:07.001Z,1.9
2018-02-10T00:36:11.154Z,2.01
2018-02-10T00:36:15.041Z,1.93
2018-02-10T00:36:18.937Z,2.01
2018-02-10T00:36:22.839Z,1.9
2018-02-10T00:36:26.737Z,1.95
2018-02-10T00:36:30.635Z,1.98
2018-02-10T00:36:34.425Z,1.95
2018-02-10T00:36:38.426Z,1.89
2018-02-10T00:36:42.222Z,2.01
2018-02-10T00:36:46.008Z,2.05
2018-02-10T00:36:49.799Z,2.05
2018-02-10T00:36:53.586Z,2.01
2018-02-10T00:36:57.374Z,1.95
2018-02-10T00:37:01.930Z,1.95
2018-02-10T00:37:05.824Z,2.04
2018-02-10T00:37:09.721Z,1.93
2018-02-10T00:37:13.613Z,2.04
2018-02-10T00:37:17.296Z,1.93
2018-02-10T00:37:21.092Z,2.05
2018-02-10T00:37:25.034Z,1.9
2018-02-10T00:37:28.927Z,2.04
2018-02-10T00:37:32.721Z,1.98
2018-02-10T00:37:36.512Z,2.07
2018-02-10T00:37:40.514Z,2.08
2018-02-10T00:37:44.410Z,1.93
2018-02-10T00:37:48.194Z,1.89
2018-02-10T00:37:52.086Z,1.98
2018-02-10T00:37:55.983Z,1.88
2018-02-10T00:37:59.875Z,1.92
2018-02-10T00:38:03.772Z,2.02
2018-02-10T00:38:07.564Z,2.05
2018-02-10T00:38:11.458Z,2.07
2018-02-10T00:38:15.247Z,2.07
2018-02-10T00:38:19.139Z,1.93
2018-02-10T00:38:23.036Z,1.98
2018-02-10T00:38:27.030Z,1.93
2018-02-10T00:38:30.923Z,1.98
2018-02-10T00:38:34.815Z,1.98
2018-02-10T00:38:38.716Z,2.05
2018-02-10T00:38:42.917Z,1.93
2018-02-10T00:38:47.025Z,2.02
2018-02-10T00:38:50.921Z,1.98
2018-02-10T00:38:54.925Z,2.02
2018-02-10T00:38:58.930Z,1.93
2018-02-10T00:39:03.027Z,2.02
2018-02-10T00:39:06.708Z,1.88
2018-02-10T00:39:10.598Z,1.92
2018-02-10T00:39:14.596Z,1.95
2018-02-10T00:39:18.490Z,1.98
2018-02-10T00:39:22.490Z,1.93
2018-02-10T00:39:26.488Z,1.88
2018-02-10T00:39:30.279Z,1.89
2018-02-10T00:39:34.066Z,1.92
2018-02-10T00:39:38.062Z,1.93
2018-02-10T00:39:42.265Z,2.01
2018-02-10T00:39:46.107Z,1.93
2018-02-10T00:39:49.793Z,1.9
2018-02-10T00:39:53.582Z,1.9
2018-02-10T00:39:57.737Z,1.92
2018-02-10T00:40:01.979Z,1.98
2018-02-10T00:40:06.090Z,1.95
2018-02-10T00:40:10.091Z,1.92
2018-02-10T00:40:13.990Z,1.9
2018-02-10T00:40:17.882Z,1.9
2018-02-10T00:40:21.892Z,1.92
2018-02-10T00:40:25.681Z,1.92
2018-02-10T00:40:29.572Z,1.98
2018-02-10T00:40:33.687Z,1.85
2018-02-10T00:40:37.581Z,1.95
2018-02-10T00:40:41.685Z,1.92
2018-02-10T00:40:45.579Z,1.86
2018-02-10T00:40:49.689Z,1.89
2018-02-10T00:40:53.481Z,1.89
2018-02-10T00:40:57.377Z,1.93
2018-02-10T00:41:01.378Z,1.93
2018-02-10T00:41:05.376Z,1.93
2018-02-10T00:41:09.162Z,1.92
2018-02-10T00:41:13.156Z,1.93
2018-02-10T00:41:17.051Z,2
2018-02-10T00:41:20.954Z,1.92
2018-02-10T00:41:24.900Z,1.93
2018-02-10T00:41:28.698Z,1.9
2018-02-10T00:41:32.802Z,1.92
2018-02-10T00:41:36.691Z,1.85
2018-02-10T00:41:40.482Z,1.89
2018-02-10T00:41:44.593Z,1.83
2018-02-10T00:41:48.692Z,1.88
2018-02-10T00:41:52.796Z,1.92
2018-02-10T00:41:56.795Z,1.93
2018-02-10T00:42:00.689Z,1.98
2018-02-10T00:42:04.693Z,1.92
2018-02-10T00:42:08.483Z,1.93
2018-02-10T00:42:12.166Z,1.92
2018-02-10T00:42:16.057Z,1.88
2018-02-10T00:42:19.951Z,1.93
2018-02-10T00:42:23.739Z,1.89
2018-02-10T00:42:27.530Z,1.92
2018-02-10T00:42:31.320Z,1.95
2018-02-10T00:42:35.212Z,1.89
2018-02-10T00:42:39.212Z,1.92
2018-02-10T00:42:43.110Z,1.95
2018-02-10T00:42:47.001Z,1.92
2018-02-10T00:42:51.110Z,1.89
2018-02-10T00:42:54.998Z,1.92
2018-02-10T00:42:58.995Z,1.92
2018-02-10T00:43:02.786Z,1.95
2018-02-10T00:43:06.893Z,1.93
2018-02-10T00:43:10.682Z,1.98
2018-02-10T00:43:14.782Z,1.9
2018-02-10T00:43:18.575Z,1.81
2018-02-10T00:43:22.367Z,1.95
2018-02-10T00:43:26.265Z,1.9
2018-02-10T00:43:30.163Z,1.98
2018-02-10T00:43:34.058Z,1.93
2018-02-10T00:43:38.268Z,1.98
2018-02-10T00:43:41.953Z,1.9
2018-02-10T00:43:45.956Z,1.85
2018-02-10T00:43:49.960Z,1.93
2018-02-10T00:43:54.076Z,1.95
2018-02-10T00:43:57.964Z,1.95
2018-02-10T00:44:02.026Z,1.9
2018-02-10T00:44:06.026Z,1.9
2018-02-10T00:44:09.807Z,1.95
2018-02-10T00:44:13.914Z,1.89
2018-02-10T00:44:17.701Z,1.98
2018-02-10T00:44:21.590Z,2
2018-02-10T00:44:25.482Z,2
2018-02-10T00:44:29.265Z,1.92
2018-02-10T00:44:33.261Z,1.92
2018-02-10T00:44:37.469Z,2.02
2018-02-10T00:44:41.368Z,1.89
2018-02-10T00:44:45.053Z,1.93
2018-02-10T00:44:48.842Z,1.93
2018-02-10T00:44:52.839Z,1.9
2018-02-10T00:44:56.940Z,2.05
2018-02-10T00:45:00.827Z,1.93
2018-02-10T00:45:04.828Z,1.92
2018-02-10T00:45:08.510Z,2.05
2018-02-10T00:45:12.507Z,1.95
2018-02-10T00:45:16.402Z,1.93
2018-02-10T00:45:20.345Z,1.92
2018-02-10T00:45:24.599Z,2
2018-02-10T00:45:28.391Z,1.95
2018-02-10T00:45:32.177Z,1.89
2018-02-10T00:45:36.074Z,1.93
2018-02-10T00:45:39.969Z,1.93
2018-02-10T00:45:44.073Z,2
2018-02-10T00:45:48.069Z,2
2018-02-10T00:45:52.444Z,1.92
2018-02-10T00:45:56.231Z,1.98
2018-02-10T00:46:00.230Z,1.95
2018-02-10T00:46:03.910Z,1.93
2018-02-10T00:46:07.596Z,1.92
2018-02-10T00:46:11.491Z,1.93
2018-02-10T00:46:15.285Z,1.95
2018-02-10T00:46:19.182Z,2
2018-02-10T00:46:23.188Z,2
2018-02-10T00:46:27.180Z,1.9
2018-02-10T00:46:31.180Z,2
2018-02-10T00:46:35.082Z,2.02
2018-02-10T00:46:39.080Z,1.92
2018-02-10T00:46:42.873Z,2
2018-02-10T00:46:46.871Z,1.98
2018-02-10T00:46:50.868Z,1.92
2018-02-10T00:46:54.760Z,1.93
2018-02-10T00:46:58.652Z,1.92
2018-02-10T00:47:02.549Z,1.95
2018-02-10T00:47:06.227Z,1.98
2018-02-10T00:47:10.023Z,1.98
2018-02-10T00:47:13.815Z,1.93
2018-02-10T00:47:17.711Z,1.95
2018-02-10T00:47:21.498Z,1.95
2018-02-10T00:47:25.284Z,1.93
2018-02-10T00:47:29.272Z,1.95
2018-02-10T00:47:33.160Z,1.93
2018-02-10T00:47:37.167Z,1.92
2018-02-10T00:47:41.174Z,1.95
2018-02-10T00:47:45.064Z,2.04
2018-02-10T00:47:48.963Z,1.92
2018-02-10T00:47:52.862Z,2.07
2018-02-10T00:47:56.757Z,1.95
2018-02-10T00:48:00.650Z,1.92
2018-02-10T00:48:04.802Z,1.95
2018-02-10T00:48:08.699Z,2.01
2018-02-10T00:48:12.483Z,1.9
2018-02-10T00:48:16.488Z,1.9
2018-02-10T00:48:20.378Z,1.89
2018-02-10T00:48:24.590Z,1.95
2018-02-10T00:48:28.498Z,1.93
2018-02-10T00:48:32.289Z,1.95
2018-02-10T00:48:36.184Z,1.92
2018-02-10T00:48:40.078Z,1.92
2018-02-10T00:48:44.236Z,2
2018-02-10T00:48:47.922Z,1.95
2018-02-10T00:48:51.812Z,2.02
2018-02-10T00:48:55.812Z,1.92
2018-02-10T00:48:59.706Z,1.93
2018-02-10T00:49:03.499Z,1.98
2018-02-10T00:49:07.298Z,1.9
2018-02-10T00:49:11.076Z,1.9
2018-02-10T00:49:15.074Z,2.05
2018-02-10T00:49:18.858Z,1.92
2018-02-10T00:49:22.745Z,1.95
2018-02-10T00:49:26.635Z,1.93
2018-02-10T00:49:30.639Z,2.08
2018-02-10T00:49:34.536Z,1.9
2018-02-10T00:49:38.534Z,1.93
2018-02-10T00:49:42.428Z,2.01
2018-02-10T00:49:46.319Z,2.02
2018-02-10T00:49:50.112Z,1.93
2018-02-10T00:49:54.011Z,2
2018-02-10T00:49:58.012Z,2.04
2018-02-10T00:50:02.006Z,1.98
2018-02-10T00:50:05.905Z,2
2018-02-10T00:50:09.587Z,1.98
2018-02-10T00:50:13.690Z,1.92
2018-02-10T00:50:17.584Z,2.08
2018-02-10T00:50:21.521Z,1.95
2018-02-10T00:50:25.379Z,1.95
2018-02-10T00:50:29.279Z,1.93
2018-02-10T00:50:33.175Z,1.95
2018-02-10T00:50:36.857Z,2.04
2018-02-10T00:50:40.658Z,1.98
2018-02-10T00:50:44.555Z,2.04
2018-02-10T00:50:48.554Z,2
2018-02-10T00:50:52.352Z,1.88
2018-02-10T00:50:56.151Z,2.08
2018-02-10T00:51:00.252Z,2.01
2018-02-10T00:51:04.142Z,2.04
2018-02-10T00:51:08.140Z,1.95
2018-02-10T00:51:11.935Z,2.01
2018-02-10T00:51:15.835Z,2.04
2018-02-10T00:51:19.518Z,2.04
2018-02-10T00:51:23.415Z,2.02
2018-02-10T00:51:27.308Z,1.92
2018-02-10T00:51:31.405Z,2.04
2018-02-10T00:51:35.306Z,1.92
2018-02-10T00:51:39.404Z,2
2018-02-10T00:51:43.519Z,2.02
2018-02-10T00:51:47.343Z,2.04
2018-02-10T00:51:51.237Z,1.98
2018-02-10T00:51:55.235Z,2
2018-02-10T00:51:59.233Z,2.01
2018-02-10T00:52:03.180Z,2
2018-02-10T00:52:07.285Z,2.08
2018-02-10T00:52:11.286Z,2.05
2018-02-10T00:52:15.072Z,2.05
2018-02-10T00:52:19.069Z,2.04
2018-02-10T00:52:22.964Z,2.05
2018-02-10T00:52:26.965Z,2.04